Terminal Aerodrome Forecast
Issued by NWS

Home | Current Version | Previous Version | Text Only | Print | Product List | Glossary On
Versions: 1 2 3 4 5 6 7 8 9 10 11 12 13 14 15 16 17 18 19
000
FTAK31 PAJN 270540
TAFAYA
TAF
PAYA 270540Z 2706/2806 VRB03KT P6SM OVC070
     FM271200 VRB03KT P6SM VCSH OVC060
     FM271500 12007KT P6SM -RA BKN030 OVC040
     FM272100 13006KT P6SM -SHRA BKN040 OVC090
     FM280000 VRB03KT P6SM VCSH OVC060
      AMD LTD TO CLD VIS AND WIND 2706/2709=

USA.gov is the U.S. government's official web portal to all federal, state and local government web resources and services.